createdAt,value
2019-01-12T00:01:53.225Z,20.10
2019-01-12T00:04:23.752Z,26.40
2019-01-12T00:06:54.211Z,27.22
2019-01-12T00:09:24.736Z,37.75
2019-01-12T00:11:55.235Z,39.73
2019-01-12T00:14:25.766Z,21.82
2019-01-12T00:16:56.260Z,33.02
2019-01-12T00:19:26.829Z,26.33
2019-01-12T00:21:57.320Z,31.20
2019-01-12T00:24:31.567Z,42.48
2019-01-12T00:27:00.091Z,38.58
2019-01-12T00:29:30.586Z,26.55
2019-01-12T00:32:01.086Z,38.58
2019-01-12T00:34:31.612Z,45.92
2019-01-12T00:37:02.131Z,27.70
2019-01-12T00:39:32.615Z,31.10
2019-01-12T00:42:03.269Z,39.67
2019-01-12T00:44:33.773Z,44.23
2019-01-12T00:47:04.294Z,27.58
2019-01-12T00:49:34.847Z,34.95
2019-01-12T00:52:05.329Z,35.80
2019-01-12T00:54:38.727Z,31.35
2019-01-12T00:57:08.068Z,28.57
2019-01-12T00:59:38.545Z,28.42
2019-01-12T01:02:09.030Z,41.75
2019-01-12T01:04:39.591Z,30.95
2019-01-12T01:07:10.081Z,32.58
2019-01-12T01:09:40.733Z,30.40
2019-01-12T01:12:11.311Z,28.02
2019-01-12T01:14:41.810Z,17.73
2019-01-12T01:17:12.349Z,21.68
2019-01-12T01:19:43.548Z,35.80
2019-01-12T01:22:14.031Z,31.87
2019-01-12T01:24:45.926Z,33.18
2019-01-12T01:27:16.774Z,23.73
2019-01-12T01:29:47.259Z,35.70
2019-01-12T01:32:17.738Z,27.67
2019-01-12T01:34:48.249Z,25.35
2019-01-12T01:37:18.760Z,19.80
2019-01-12T01:39:49.256Z,35.58
2019-01-12T01:42:19.798Z,32.13
2019-01-12T01:44:50.284Z,42.50
2019-01-12T01:47:20.801Z,34.33
2019-01-12T01:49:51.310Z,19.03
2019-01-12T01:52:21.819Z,26.15
2019-01-12T01:54:52.923Z,40.60
2019-01-12T01:57:23.744Z,25.37
2019-01-12T01:59:54.225Z,22.85
2019-01-12T02:02:24.709Z,33.80
2019-01-12T02:04:55.248Z,21.40
2019-01-12T02:07:25.728Z,23.00
2019-01-12T02:09:56.218Z,17.85
2019-01-12T02:12:26.756Z,32.13
2019-01-12T02:14:57.241Z,34.60
2019-01-12T02:17:27.824Z,21.25
2019-01-12T02:19:58.353Z,46.10
2019-01-12T02:22:28.852Z,33.83
2019-01-12T02:25:00.154Z,32.38
2019-01-12T02:27:30.811Z,26.35
2019-01-12T02:30:01.393Z,31.07
2019-01-12T02:32:31.898Z,27.75
2019-01-12T02:35:02.806Z,30.52
2019-01-12T02:37:33.294Z,24.65
2019-01-12T02:40:03.835Z,33.00
2019-01-12T02:42:34.382Z,15.55
2019-01-12T02:45:05.479Z,24.03
2019-01-12T02:47:35.987Z,15.77
2019-01-12T02:50:08.861Z,21.73
2019-01-12T02:52:39.971Z,17.80
2019-01-12T02:55:10.702Z,23.80
2019-01-12T02:57:41.200Z,20.17
2019-01-12T03:00:18.354Z,20.75
2019-01-12T03:02:49.048Z,24.40
2019-01-12T03:05:19.541Z,27.02
2019-01-12T03:07:50.100Z,22.40
2019-01-12T03:10:20.639Z,15.20
2019-01-12T03:12:51.122Z,34.38
2019-01-12T03:15:21.593Z,15.70
2019-01-12T03:17:52.188Z,24.43
2019-01-12T03:20:22.716Z,33.67
2019-01-12T03:22:53.261Z,25.57
2019-01-12T03:25:23.819Z,21.48
2019-01-12T03:27:54.296Z,23.18
2019-01-12T03:30:24.778Z,14.53
2019-01-12T03:32:55.306Z,25.12
2019-01-12T03:35:25.782Z,20.27
2019-01-12T03:37:56.280Z,39.80
2019-01-12T03:40:26.773Z,20.15
2019-01-12T03:42:57.243Z,17.23
2019-01-12T03:45:27.744Z,34.48
2019-01-12T03:47:58.276Z,27.75
2019-01-12T03:50:28.752Z,25.15
2019-01-12T03:52:59.228Z,16.65
2019-01-12T03:55:29.800Z,13.55
2019-01-12T03:58:00.286Z,16.10
2019-01-12T04:00:30.792Z,17.73
2019-01-12T04:03:01.312Z,8.77
2019-01-12T04:05:31.791Z,19.70
2019-01-12T04:08:02.287Z,18.07
2019-01-12T04:10:32.879Z,10.00
2019-01-12T04:13:03.368Z,13.75
2019-01-12T04:15:33.918Z,12.05
2019-01-12T04:18:04.465Z,17.20
2019-01-12T04:20:34.975Z,17.65
2019-01-12T04:23:05.521Z,11.45
2019-01-12T04:25:36.020Z,7.28
2019-01-12T04:28:07.061Z,10.15
2019-01-12T04:30:37.589Z,13.88
2019-01-12T04:33:08.119Z,10.10
2019-01-12T04:35:38.668Z,5.53
2019-01-12T04:38:09.148Z,7.58
2019-01-12T04:40:39.839Z,15.60
2019-01-12T04:43:10.353Z,7.33
2019-01-12T04:45:40.850Z,9.05
2019-01-12T04:48:11.417Z,12.23
2019-01-12T04:50:41.940Z,5.72
2019-01-12T04:53:12.443Z,9.70
2019-01-12T04:55:42.984Z,2.75
2019-01-12T04:58:13.505Z,7.50
2019-01-12T05:00:44.021Z,4.75
2019-01-12T05:03:14.544Z,2.35
2019-01-12T05:05:45.063Z,4.15
2019-01-12T05:08:15.548Z,3.10
2019-01-12T05:10:46.113Z,3.52
2019-01-12T05:13:16.634Z,8.67
2019-01-12T05:15:47.156Z,5.47
2019-01-12T05:18:17.643Z,9.50
2019-01-12T05:20:48.149Z,14.93
2019-01-12T05:23:18.684Z,12.60
2019-01-12T05:25:49.487Z,8.00
2019-01-12T05:28:20.037Z,5.90
2019-01-12T05:30:50.576Z,12.98
2019-01-12T05:33:21.139Z,14.33
2019-01-12T05:35:51.678Z,10.58
2019-01-12T05:38:22.162Z,5.58
2019-01-12T05:40:52.717Z,13.78
2019-01-12T05:43:23.220Z,13.80
2019-01-12T05:45:53.741Z,6.10
2019-01-12T05:48:24.265Z,6.53
2019-01-12T05:50:54.790Z,7.67
2019-01-12T05:53:25.281Z,4.60
2019-01-12T05:55:58.112Z,7.53
2019-01-12T05:58:28.086Z,7.42
2019-01-12T06:00:58.611Z,1.80
2019-01-12T06:03:29.138Z,8.30
2019-01-12T06:05:59.673Z,4.80
2019-01-12T06:08:30.240Z,5.80
2019-01-12T06:11:00.799Z,4.80
2019-01-12T06:13:31.277Z,9.35
2019-01-12T06:16:01.852Z,1.62
2019-01-12T06:18:32.371Z,4.03
2019-01-12T06:21:02.867Z,7.00
2019-01-12T06:23:33.368Z,4.20
2019-01-12T06:26:04.290Z,9.00
2019-01-12T06:28:34.943Z,5.30
2019-01-12T06:31:05.563Z,7.17
2019-01-12T06:33:36.080Z,14.18
2019-01-12T06:36:06.672Z,6.70
2019-01-12T06:38:37.190Z,12.70
2019-01-12T06:41:07.726Z,8.03
2019-01-12T06:43:38.216Z,4.70
2019-01-12T07:10:51.193Z,5.90
2019-01-12T07:14:45.922Z,5.80
2019-01-12T07:17:16.983Z,4.10
2019-01-12T07:19:49.708Z,4.35
2019-01-12T07:22:20.255Z,9.30
2019-01-12T07:24:54.470Z,5.10
2019-01-12T07:27:24.974Z,7.47
2019-01-12T07:29:55.486Z,5.17
2019-01-12T07:32:26.200Z,6.00
2019-01-12T07:34:56.929Z,9.60
2019-01-12T07:37:27.482Z,6.78
2019-01-12T07:39:58.380Z,7.30
2019-01-12T07:42:29.084Z,5.03
2019-01-12T07:44:59.877Z,2.33
2019-01-12T07:47:30.982Z,7.17
2019-01-12T07:50:02.238Z,5.90
2019-01-12T07:52:33.011Z,1.50
2019-01-12T07:55:03.532Z,9.30
2019-01-12T07:57:34.102Z,6.20
2019-01-12T08:00:08.645Z,2.63
2019-01-12T08:02:39.560Z,1.20
2019-01-12T08:05:10.868Z,2.95
2019-01-12T08:07:42.737Z,3.55
2019-01-12T08:10:21.392Z,8.15
2019-01-12T08:13:02.107Z,4.78
2019-01-12T08:15:34.652Z,7.10
2019-01-12T08:18:06.478Z,3.95
2019-01-12T08:20:37.648Z,6.00
2019-01-12T08:23:08.374Z,5.95
2019-01-12T08:25:41.839Z,5.97
2019-01-12T08:28:12.562Z,11.20
2019-01-12T08:30:43.394Z,4.45
2019-01-12T08:33:14.086Z,8.45
2019-01-12T08:35:46.016Z,8.73
2019-01-12T08:38:17.043Z,8.70
2019-01-12T08:40:48.909Z,13.43
2019-01-12T08:43:19.882Z,5.50
2019-01-12T08:45:51.704Z,9.38
2019-01-12T08:48:22.455Z,9.57
2019-01-12T08:50:53.803Z,8.55
2019-01-12T08:53:24.641Z,8.97
2019-01-12T08:55:55.412Z,20.65
2019-01-12T08:58:26.317Z,5.95
2019-01-12T09:00:56.970Z,9.70
2019-01-12T09:03:28.190Z,9.57
2019-01-12T09:05:59.558Z,3.30
2019-01-12T09:08:30.201Z,8.30
2019-01-12T09:11:02.210Z,7.45
2019-01-12T09:13:33.844Z,8.45
2019-01-12T09:16:04.539Z,3.70
2019-01-12T09:18:35.331Z,11.25
2019-01-12T09:21:06.249Z,2.05
2019-01-12T09:23:36.881Z,12.63
2019-01-12T09:26:07.943Z,8.93
2019-01-12T09:28:38.611Z,8.83
2019-01-12T09:31:09.389Z,4.62
2019-01-12T09:33:40.185Z,10.05
2019-01-12T09:36:10.781Z,11.35
2019-01-12T09:38:42.857Z,10.48
2019-01-12T09:41:13.698Z,13.55
2019-01-12T09:43:44.271Z,6.83
2019-01-12T09:46:14.880Z,20.80
2019-01-12T09:48:45.453Z,10.60
2019-01-12T09:51:15.968Z,2.95
2019-01-12T09:53:46.555Z,10.72
2019-01-12T09:56:17.736Z,7.10
2019-01-12T09:58:48.753Z,12.00
2019-01-12T10:01:21.849Z,4.90
2019-01-12T10:03:52.408Z,8.20
2019-01-12T10:06:23.112Z,9.28
2019-01-12T10:08:53.722Z,8.18
2019-01-12T10:11:24.341Z,6.42
2019-01-12T10:13:54.950Z,3.72
2019-01-12T10:16:25.621Z,4.53
2019-01-12T10:18:56.244Z,4.75
2019-01-12T10:21:26.937Z,8.18
2019-01-12T10:23:57.838Z,3.08
2019-01-12T10:26:28.629Z,8.45
2019-01-12T10:28:59.506Z,4.78
2019-01-12T10:31:30.392Z,10.32
2019-01-12T10:34:01.027Z,6.78
2019-01-12T10:36:31.786Z,7.80
2019-01-12T10:39:02.505Z,6.92
2019-01-12T10:41:33.177Z,5.80
2019-01-12T10:44:03.914Z,7.20
2019-01-12T10:46:35.004Z,9.70
2019-01-12T10:49:06.111Z,7.03
2019-01-12T10:51:37.225Z,8.43
2019-01-12T10:54:08.152Z,7.10
2019-01-12T10:56:38.889Z,7.97
2019-01-12T10:59:09.660Z,5.72
2019-01-12T11:01:41.657Z,6.78
2019-01-12T11:04:12.334Z,5.12
2019-01-12T11:06:42.985Z,5.05
2019-01-12T11:09:13.924Z,4.13
2019-01-12T11:11:44.817Z,9.17
2019-01-12T11:14:15.799Z,6.97
2019-01-12T11:16:46.514Z,6.37
2019-01-12T11:19:17.263Z,5.92
2019-01-12T11:21:48.077Z,8.73
2019-01-12T11:24:18.873Z,6.87
2019-01-12T11:26:49.541Z,8.78
2019-01-12T11:29:20.815Z,7.10
2019-01-12T11:31:51.527Z,9.00
2019-01-12T11:34:22.220Z,8.70
2019-01-12T11:36:53.016Z,8.28
2019-01-12T11:39:23.674Z,11.30
2019-01-12T11:41:54.250Z,4.90
2019-01-12T11:44:24.836Z,8.50
2019-01-12T11:46:55.422Z,8.73
2019-01-12T11:49:26.815Z,12.78
2019-01-12T11:51:57.569Z,9.40
2019-01-12T11:54:28.289Z,9.83
2019-01-12T11:56:59.027Z,10.03
2019-01-12T11:59:29.703Z,10.00
2019-01-12T12:02:00.372Z,10.78
2019-01-12T12:04:31.101Z,8.85
2019-01-12T12:07:01.721Z,8.37
2019-01-12T12:09:32.374Z,9.40
2019-01-12T12:12:03.036Z,13.35
2019-01-12T12:14:34.295Z,9.65
2019-01-12T12:17:04.936Z,12.30
2019-01-12T12:19:35.656Z,10.03
2019-01-12T12:22:06.432Z,8.93
2019-01-12T12:24:37.423Z,12.75
2019-01-12T12:27:09.896Z,10.90
2019-01-12T12:29:40.639Z,10.40
2019-01-12T12:32:11.456Z,11.03
2019-01-12T12:34:42.038Z,11.57
2019-01-12T12:37:12.745Z,9.47
2019-01-12T12:39:43.451Z,9.23
2019-01-12T12:42:15.054Z,6.70
2019-01-12T12:45:01.300Z,9.40
2019-01-12T12:52:58.674Z,16.67
2019-01-12T12:55:40.673Z,8.30
2019-01-12T12:58:30.696Z,7.63
2019-01-12T13:01:04.206Z,5.80
2019-01-12T13:04:03.451Z,7.05
2019-01-12T13:06:35.366Z,6.97
2019-01-12T13:09:13.971Z,7.17
2019-01-12T13:11:44.821Z,5.40
2019-01-12T13:14:21.430Z,7.62
2019-01-12T13:17:14.488Z,4.70
2019-01-12T13:20:04.243Z,4.40
2019-01-12T13:22:35.080Z,4.15
2019-01-12T13:25:06.508Z,4.20
2019-01-12T13:28:07.290Z,5.45
2019-01-12T13:30:37.919Z,4.30
2019-01-12T13:33:08.583Z,2.70
2019-01-12T13:35:39.274Z,2.80
2019-01-12T13:38:09.923Z,3.37
2019-01-12T13:40:40.632Z,2.70
2019-01-12T13:43:11.286Z,3.40
2019-01-12T13:45:41.876Z,2.33
2019-01-12T13:48:12.437Z,1.95
2019-01-12T13:50:43.107Z,1.45
2019-01-12T13:53:13.666Z,1.00
2019-01-12T13:55:44.242Z,1.90
2019-01-12T13:58:14.928Z,2.85
2019-01-12T14:00:45.510Z,3.65
2019-01-12T14:03:16.119Z,1.95
2019-01-12T14:05:46.824Z,4.20
2019-01-12T14:08:17.452Z,7.65
2019-01-12T14:10:48.409Z,7.22
2019-01-12T14:13:19.150Z,6.45
2019-01-12T14:15:49.888Z,5.17
2019-01-12T14:18:22.709Z,3.85
2019-01-12T14:20:53.122Z,9.53
2019-01-12T14:23:23.747Z,12.88
2019-01-12T14:25:54.661Z,15.08
2019-01-12T14:28:25.742Z,12.55
2019-01-12T14:30:56.460Z,8.98
2019-01-12T14:33:26.986Z,11.00
2019-01-12T14:35:57.641Z,12.13
2019-01-12T14:38:28.326Z,22.90
2019-01-12T14:40:58.909Z,8.58
2019-01-12T14:43:29.607Z,21.12
2019-01-12T14:46:00.178Z,23.47
2019-01-12T14:48:30.915Z,19.32
2019-01-12T14:51:01.695Z,37.60
2019-01-12T14:53:35.414Z,19.48
2019-01-12T14:56:06.253Z,32.40
2019-01-12T14:58:36.930Z,38.23
2019-01-12T15:01:07.567Z,21.20
2019-01-12T15:03:38.181Z,21.62
2019-01-12T15:06:08.770Z,38.10
2019-01-12T15:08:39.620Z,13.65
2019-01-12T15:11:10.326Z,15.13
2019-01-12T15:13:41.030Z,31.37
2019-01-12T15:16:11.652Z,42.48
2019-01-12T15:18:42.318Z,28.92
2019-01-12T15:21:12.883Z,23.12
2019-01-12T15:23:43.600Z,24.02
2019-01-12T15:26:14.199Z,13.77
2019-01-12T15:28:44.754Z,13.70
2019-01-12T15:31:15.291Z,13.60
2019-01-12T15:33:46.069Z,10.38
2019-01-12T15:36:16.669Z,3.35
2019-01-12T15:38:47.209Z,18.60
2019-01-12T15:41:17.793Z,8.63
2019-01-12T15:43:48.311Z,13.87
2019-01-12T15:46:18.840Z,17.30
2019-01-12T15:48:49.533Z,19.73
2019-01-12T15:51:20.123Z,24.45
2019-01-12T15:53:50.627Z,24.43
2019-01-12T15:56:21.519Z,25.10
2019-01-12T15:58:52.323Z,28.25
2019-01-12T16:01:23.998Z,29.00
2019-01-12T16:03:54.879Z,27.82
2019-01-12T16:06:52.485Z,18.12
2019-01-12T16:09:23.091Z,25.27
2019-01-12T16:11:53.998Z,24.75
2019-01-12T16:14:24.719Z,18.50
2019-01-12T16:16:55.377Z,40.70
2019-01-12T16:19:25.972Z,29.77
2019-01-12T16:21:56.814Z,24.25
2019-01-12T16:24:28.105Z,20.00
2019-01-12T16:26:59.352Z,22.73
2019-01-12T16:29:30.089Z,20.65
2019-01-12T16:32:00.889Z,21.62
2019-01-12T16:34:31.609Z,12.90
2019-01-12T16:37:02.446Z,26.42
2019-01-12T16:39:33.515Z,19.12
2019-01-12T16:42:04.463Z,19.55
2019-01-12T16:44:35.207Z,17.77
2019-01-12T16:47:30.533Z,22.82
2019-01-12T16:50:21.017Z,21.02
2019-01-12T16:52:52.092Z,14.57
2019-01-12T16:55:22.757Z,13.90
2019-01-12T16:57:54.501Z,21.30
2019-01-12T17:00:28.659Z,20.05
2019-01-12T17:02:59.997Z,20.92
2019-01-12T17:05:30.784Z,15.83
2019-01-12T17:08:01.618Z,26.37
2019-01-12T17:10:32.508Z,19.80
2019-01-12T17:13:22.431Z,26.60
2019-01-12T17:15:59.413Z,15.20
2019-01-12T17:18:30.164Z,17.27
2019-01-12T17:21:01.068Z,16.70
2019-01-12T17:23:33.174Z,17.95
2019-01-12T17:26:04.034Z,16.27
2019-01-12T17:28:37.431Z,15.38
2019-01-12T17:31:06.882Z,18.35
2019-01-12T17:33:37.759Z,9.73
2019-01-12T17:36:08.293Z,19.73
2019-01-12T17:38:38.869Z,32.48
2019-01-12T17:41:09.953Z,26.10
2019-01-12T17:43:40.485Z,25.40
2019-01-12T17:46:11.056Z,39.30
2019-01-12T17:48:41.586Z,20.45
2019-01-12T17:51:14.917Z,16.07
2019-01-12T17:53:45.388Z,18.50
2019-01-12T17:56:16.839Z,19.57
2019-01-12T17:58:47.472Z,13.85
2019-01-12T18:01:18.150Z,28.12
2019-01-12T18:03:48.828Z,22.97
2019-01-12T18:06:19.497Z,19.90
2019-01-12T18:08:50.147Z,21.45
2019-01-12T18:11:20.722Z,16.07
2019-01-12T18:13:51.358Z,32.80
2019-01-12T18:16:21.924Z,32.57
2019-01-12T18:18:52.574Z,16.70
2019-01-12T18:21:23.289Z,21.48
2019-01-12T18:23:53.825Z,24.10
2019-01-12T18:26:24.555Z,31.68
2019-01-12T18:28:55.126Z,35.10
2019-01-12T18:31:25.723Z,22.32
2019-01-12T18:33:56.592Z,16.48
2019-01-12T18:36:27.129Z,18.65
2019-01-12T18:38:57.669Z,16.77
2019-01-12T18:41:28.245Z,30.95
2019-01-12T18:43:58.753Z,29.77
2019-01-12T18:46:48.593Z,20.62
2019-01-12T18:49:19.468Z,22.95
2019-01-12T18:51:50.256Z,16.37
2019-01-12T18:54:21.071Z,9.10
2019-01-12T18:56:51.824Z,19.83
2019-01-12T18:59:22.448Z,40.88
2019-01-12T19:01:53.354Z,29.48
2019-01-12T19:04:24.133Z,31.27
2019-01-12T19:06:54.719Z,34.58
2019-01-12T19:09:25.340Z,22.55
2019-01-12T19:11:55.814Z,21.13
2019-01-12T19:14:26.337Z,29.00
2019-01-12T19:16:57.023Z,29.75
2019-01-12T19:19:27.714Z,28.17
2019-01-12T19:21:58.305Z,37.53
2019-01-12T19:24:28.966Z,20.25
2019-01-12T19:26:59.959Z,19.75
2019-01-12T19:29:31.070Z,12.05
2019-01-12T19:32:17.077Z,22.65
2019-01-12T19:34:47.725Z,25.60
2019-01-12T19:37:18.471Z,22.98
2019-01-12T19:39:49.324Z,37.75
2019-01-12T19:42:19.865Z,34.18
2019-01-12T19:44:50.491Z,41.70
2019-01-12T19:47:23.090Z,25.30
2019-01-12T19:49:53.665Z,28.73
2019-01-12T19:52:24.463Z,22.15
2019-01-12T19:54:55.217Z,29.52
2019-01-12T19:57:25.856Z,15.20
2019-01-12T19:59:57.730Z,27.90
2019-01-12T20:02:28.468Z,22.07
2019-01-12T20:04:59.050Z,13.23
2019-01-12T20:07:29.787Z,20.45
2019-01-12T20:10:00.531Z,20.12
2019-01-12T20:12:31.265Z,28.70
2019-01-12T20:15:01.944Z,14.07
2019-01-12T20:17:32.678Z,30.20
2019-01-12T20:20:03.336Z,34.58
2019-01-12T20:22:34.135Z,32.78
2019-01-12T20:25:05.234Z,29.57
2019-01-12T20:27:35.776Z,26.48
2019-01-12T20:30:13.408Z,24.40
2019-01-12T20:33:26.226Z,29.35
2019-01-12T20:36:56.066Z,13.05
2019-01-12T20:40:13.737Z,29.30
2019-01-12T20:43:50.302Z,18.60
2019-01-12T20:47:00.329Z,25.53
2019-01-12T20:49:58.968Z,12.00
2019-01-12T20:53:38.391Z,10.60
2019-01-12T20:57:04.889Z,19.77
2019-01-12T21:00:28.102Z,11.75
2019-01-12T21:03:48.265Z,8.55
2019-01-12T21:06:57.675Z,12.65
2019-01-12T21:10:01.382Z,10.63
2019-01-12T21:13:24.373Z,8.60
2019-01-12T21:16:06.181Z,5.30
2019-01-12T21:18:36.865Z,6.92
2019-01-12T21:21:07.535Z,5.85
2019-01-12T21:23:38.236Z,6.62
2019-01-12T21:26:08.877Z,13.43
2019-01-12T21:28:39.520Z,6.72
2019-01-12T21:31:10.129Z,10.98
2019-01-12T21:33:40.705Z,6.25
2019-01-12T21:36:11.513Z,11.83
2019-01-12T21:38:42.447Z,8.20
2019-01-12T21:41:13.147Z,3.70
2019-01-12T21:43:43.839Z,7.35
2019-01-12T21:46:14.670Z,6.70
2019-01-12T21:48:45.414Z,8.33
2019-01-12T21:51:16.058Z,4.08
2019-01-12T21:53:47.293Z,7.00
2019-01-12T21:56:17.990Z,3.22
2019-01-12T21:58:48.481Z,3.40
2019-01-12T22:01:19.415Z,4.70
2019-01-12T22:03:55.238Z,7.15
2019-01-12T22:06:30.043Z,4.65
2019-01-12T22:09:27.945Z,5.30
2019-01-12T22:12:00.817Z,3.40
2019-01-12T22:14:44.321Z,11.78
2019-01-12T22:17:15.493Z,2.47
2019-01-12T22:19:46.662Z,6.67
2019-01-12T22:22:28.066Z,1.70
2019-01-12T22:38:33.950Z,5.58
2019-01-12T22:41:04.813Z,2.40
2019-01-12T22:43:36.378Z,3.50
2019-01-12T22:46:07.106Z,6.33
2019-01-12T22:48:37.965Z,7.40
2019-01-12T22:51:08.908Z,5.85
2019-01-12T22:53:39.777Z,5.45
2019-01-12T22:56:10.468Z,5.72
2019-01-12T22:58:41.053Z,4.80
2019-01-12T23:01:56.551Z,12.82
2019-01-12T23:04:29.593Z,6.90
2019-01-12T23:07:00.399Z,10.15
2019-01-12T23:09:31.203Z,12.68
2019-01-12T23:12:01.922Z,13.30
2019-01-12T23:14:33.077Z,5.60
2019-01-12T23:17:03.945Z,10.88
2019-01-12T23:19:36.082Z,16.73
2019-01-12T23:22:07.198Z,12.28
2019-01-12T23:24:37.917Z,39.90
2019-01-12T23:27:08.535Z,25.70
2019-01-12T23:29:39.288Z,12.90
2019-01-12T23:32:09.924Z,12.85
2019-01-12T23:34:40.608Z,9.18
2019-01-12T23:37:11.354Z,20.97
2019-01-12T23:39:42.017Z,20.48
2019-01-12T23:42:12.624Z,14.10
2019-01-12T23:44:43.251Z,26.62
2019-01-12T23:47:13.841Z,20.13
2019-01-12T23:49:44.487Z,27.80
2019-01-12T23:52:15.086Z,38.60
2019-01-12T23:54:45.793Z,27.65
2019-01-12T23:57:16.352Z,19.07
2019-01-12T23:59:47.041Z,22.37
